createdAt,value
2022-08-18T00:02:04.476Z,18.90
2022-08-18T00:04:48.561Z,18.80
2022-08-18T00:07:22.315Z,18.60
2022-08-18T00:09:52.927Z,18.40
2022-08-18T00:12:26.699Z,18.30
2022-08-18T00:14:57.044Z,18.20
2022-08-18T00:17:28.884Z,18.10
2022-08-18T00:20:00.208Z,18.00
2022-08-18T00:22:31.586Z,17.80
2022-08-18T00:25:02.135Z,17.80
2022-08-18T00:27:34.390Z,17.70
2022-08-18T00:30:07.167Z,17.60
2022-08-18T00:32:43.282Z,17.50
2022-08-18T00:35:17.188Z,17.40
2022-08-18T00:37:48.373Z,17.30
2022-08-18T00:40:25.154Z,17.30
2022-08-18T00:42:59.899Z,17.40
2022-08-18T00:47:54.882Z,17.30
2022-08-18T00:50:33.309Z,17.20
2022-08-18T00:53:07.348Z,17.20
2022-08-18T00:55:38.403Z,17.20
2022-08-18T00:58:19.714Z,17.20
2022-08-18T01:00:52.123Z,17.10
2022-08-18T01:03:25.996Z,17.10
2022-08-18T01:06:02.881Z,17.10
2022-08-18T01:08:33.013Z,17.10
2022-08-18T01:11:05.140Z,17.20
2022-08-18T01:13:36.309Z,17.20
2022-08-18T01:16:26.978Z,17.20
2022-08-18T01:19:15.841Z,17.30
2022-08-18T01:21:55.528Z,17.30
2022-08-18T01:24:43.584Z,17.30
2022-08-18T01:27:15.688Z,17.40
2022-08-18T01:29:46.396Z,17.50
2022-08-18T01:32:20.284Z,17.60
2022-08-18T01:34:51.912Z,17.70
2022-08-18T01:37:24.840Z,17.70
2022-08-18T01:41:17.626Z,17.70
2022-08-18T01:42:47.242Z,17.70
2022-08-18T01:45:18.849Z,17.70
2022-08-18T01:47:51.229Z,17.70
2022-08-18T01:50:21.465Z,17.70
2022-08-18T01:52:54.274Z,17.70
2022-08-18T01:55:27.311Z,17.70
2022-08-18T01:57:56.823Z,17.80
2022-08-18T02:00:26.996Z,17.80
2022-08-18T02:02:58.190Z,17.90
2022-08-18T02:05:34.258Z,18.00
2022-08-18T02:08:04.385Z,18.00
2022-08-18T02:10:36.369Z,18.10
2022-08-18T02:13:06.444Z,18.10
2022-08-18T02:15:36.580Z,18.20
2022-08-18T02:18:07.041Z,18.20
2022-08-18T02:20:37.385Z,18.30
2022-08-18T02:23:07.472Z,18.30
2022-08-18T02:25:39.307Z,18.30
2022-08-18T02:28:09.663Z,18.40
2022-08-18T02:30:39.960Z,18.40
2022-08-18T02:33:11.698Z,18.40
2022-08-18T02:35:44.613Z,18.40
2022-08-18T02:38:17.487Z,18.40
2022-08-18T02:40:49.257Z,18.40
2022-08-18T02:43:19.265Z,18.40
2022-08-18T02:45:49.549Z,18.40
2022-08-18T02:48:22.217Z,18.50
2022-08-18T02:50:52.788Z,18.40
2022-08-18T02:53:24.081Z,18.40
2022-08-18T02:55:55.736Z,18.40
2022-08-18T02:58:28.285Z,18.40
2022-08-18T03:01:00.579Z,18.30
2022-08-18T03:03:33.191Z,18.40
2022-08-18T03:06:03.257Z,18.30
2022-08-18T03:08:33.644Z,18.30
2022-08-18T03:11:05.339Z,18.20
2022-08-18T03:13:35.569Z,18.10
2022-08-18T03:16:05.826Z,18.10
2022-08-18T03:18:36.318Z,18.00
2022-08-18T03:21:09.277Z,18.00
2022-08-18T03:23:40.855Z,17.90
2022-08-18T03:26:16.391Z,17.90
2022-08-18T03:28:48.490Z,17.90
2022-08-18T03:31:20.646Z,17.80
2022-08-18T03:33:57.145Z,17.80
2022-08-18T03:36:32.693Z,17.80
2022-08-18T03:39:06.387Z,17.70
2022-08-18T03:41:56.943Z,17.70
2022-08-18T03:44:31.105Z,17.70
2022-08-18T03:47:03.539Z,17.60
2022-08-18T03:49:34.530Z,17.60
2022-08-18T03:52:06.614Z,17.60
2022-08-18T03:54:36.905Z,17.60
2022-08-18T03:57:11.509Z,17.50
2022-08-18T03:59:44.474Z,17.50
2022-08-18T04:02:15.065Z,17.50
2022-08-18T04:04:45.094Z,17.50
2022-08-18T04:07:17.855Z,17.50
2022-08-18T04:09:48.499Z,17.50
2022-08-18T04:12:20.399Z,17.50
2022-08-18T04:14:52.620Z,17.50
2022-08-18T04:17:25.725Z,17.50
2022-08-18T04:19:56.708Z,17.50
2022-08-18T04:22:27.613Z,17.50
2022-08-18T04:24:58.025Z,17.50
2022-08-18T04:27:30.575Z,17.60
2022-08-18T04:30:03.629Z,17.50
2022-08-18T04:32:33.901Z,17.60
2022-08-18T04:35:04.970Z,17.50
2022-08-18T04:37:39.544Z,17.50
2022-08-18T04:40:12.846Z,17.50
2022-08-18T04:42:45.514Z,17.40
2022-08-18T04:45:15.125Z,17.40
2022-08-18T04:47:45.251Z,17.40
2022-08-18T04:50:15.515Z,17.40
2022-08-18T04:53:01.990Z,17.30
2022-08-18T04:55:31.663Z,17.30
2022-08-18T04:58:03.298Z,17.20
2022-08-18T05:00:32.791Z,17.10
2022-08-18T05:03:02.257Z,17.10
2022-08-18T05:05:31.686Z,17.00
2022-08-18T05:08:01.372Z,16.90
2022-08-18T05:10:30.816Z,16.90
2022-08-18T05:13:00.509Z,16.80
2022-08-18T05:15:46.949Z,16.80
2022-08-18T05:18:24.988Z,16.70
2022-08-18T05:20:57.529Z,16.70
2022-08-18T05:23:30.147Z,16.70
2022-08-18T05:28:47.515Z,16.70
2022-08-18T05:31:19.803Z,16.80
2022-08-18T05:33:49.594Z,16.80
2022-08-18T05:36:26.268Z,16.80
2022-08-18T05:38:58.971Z,16.80
2022-08-18T05:41:30.814Z,16.80
2022-08-18T05:44:00.531Z,16.80
2022-08-18T05:46:37.205Z,16.80
2022-08-18T05:49:07.464Z,16.70
2022-08-18T05:51:37.930Z,16.70
2022-08-18T05:54:25.259Z,16.70
2022-08-18T05:56:57.206Z,16.60
2022-08-18T05:59:29.237Z,16.50
2022-08-18T06:02:03.530Z,16.50
2022-08-18T06:04:38.108Z,16.40
2022-08-18T06:07:10.249Z,16.40
2022-08-18T06:09:44.133Z,16.40
2022-08-18T06:12:18.786Z,16.40
2022-08-18T06:14:48.494Z,16.30
2022-08-18T06:17:41.213Z,16.30
2022-08-18T06:20:18.044Z,16.20
2022-08-18T06:22:55.325Z,16.20
2022-08-18T06:25:29.210Z,16.10
2022-08-18T06:28:03.691Z,16.10
2022-08-18T06:30:44.128Z,16.00
2022-08-18T06:33:19.291Z,16.00
2022-08-18T06:35:50.609Z,16.00
2022-08-18T06:38:45.400Z,15.90
2022-08-18T06:41:42.379Z,15.90
2022-08-18T06:44:07.953Z,15.90
2022-08-18T06:46:44.196Z,15.90
2022-08-18T06:49:18.726Z,15.90
2022-08-18T06:51:48.361Z,15.80
2022-08-18T06:54:33.364Z,15.80
2022-08-18T06:57:03.080Z,15.80
2022-08-18T06:59:33.419Z,15.70
2022-08-18T07:02:04.312Z,15.80
2022-08-18T07:04:39.265Z,15.80
2022-08-18T07:07:15.910Z,15.80
2022-08-18T07:09:45.911Z,15.80
2022-08-18T07:12:21.491Z,15.80
2022-08-18T07:14:52.068Z,15.90
2022-08-18T07:17:43.289Z,15.90
2022-08-18T07:20:22.940Z,15.90
2022-08-18T07:22:56.714Z,15.90
2022-08-18T07:25:30.980Z,15.90
2022-08-18T07:28:02.778Z,15.80
2022-08-18T07:30:34.605Z,15.80
2022-08-18T07:33:10.129Z,15.70
2022-08-18T07:35:45.182Z,15.70
2022-08-18T07:38:41.507Z,15.60
2022-08-18T07:41:10.989Z,15.60
2022-08-18T07:43:44.034Z,15.60
2022-08-18T07:46:16.269Z,15.60
2022-08-18T07:48:45.972Z,15.50
2022-08-18T07:51:22.318Z,15.50
2022-08-18T07:53:56.952Z,15.50
2022-08-18T07:56:31.787Z,15.50
2022-08-18T07:59:03.812Z,15.60
2022-08-18T08:01:36.603Z,15.70
2022-08-18T08:04:25.789Z,15.80
2022-08-18T08:07:23.493Z,15.70
2022-08-18T08:10:00.564Z,15.80
2022-08-18T08:12:33.838Z,15.70
2022-08-18T08:15:08.241Z,15.70
2022-08-18T08:17:43.699Z,15.70
2022-08-18T08:20:21.008Z,15.70
2022-08-18T08:23:00.561Z,15.70
2022-08-18T08:25:49.269Z,15.70
2022-08-18T08:28:23.647Z,15.70
2022-08-18T08:31:09.041Z,15.70
2022-08-18T08:33:49.127Z,15.60
2022-08-18T08:36:21.365Z,15.60
2022-08-18T08:38:54.554Z,15.60
2022-08-18T08:41:28.908Z,15.60
2022-08-18T08:44:02.672Z,15.70
2022-08-18T08:46:35.538Z,15.70
2022-08-18T08:49:08.498Z,15.80
2022-08-18T08:51:40.297Z,15.80
2022-08-18T08:54:14.726Z,15.80
2022-08-18T08:56:46.841Z,15.80
2022-08-18T08:59:17.451Z,15.80
2022-08-18T09:01:50.414Z,15.80
2022-08-18T09:04:31.365Z,15.80
2022-08-18T09:07:07.556Z,15.90
2022-08-18T09:09:49.391Z,15.80
2022-08-18T09:12:27.094Z,15.80
2022-08-18T09:15:11.344Z,15.80
2022-08-18T09:17:48.239Z,15.70
2022-08-18T09:20:44.460Z,15.70
2022-08-18T09:23:20.975Z,15.60
2022-08-18T09:25:53.616Z,15.60
2022-08-18T09:28:25.274Z,15.60
2022-08-18T09:31:19.512Z,15.50
2022-08-18T09:33:57.101Z,15.60
2022-08-18T09:36:32.314Z,15.60
2022-08-18T09:42:15.828Z,15.60
2022-08-18T09:45:04.133Z,15.60
2022-08-18T09:47:52.257Z,15.60
2022-08-18T09:50:38.664Z,15.60
2022-08-18T09:53:20.903Z,15.60
2022-08-18T09:56:05.137Z,15.60
2022-08-18T09:58:53.565Z,15.70
2022-08-18T10:01:37.422Z,15.70
2022-08-18T10:04:38.866Z,15.70
2022-08-18T10:07:38.798Z,15.70
2022-08-18T10:11:00.855Z,15.60
2022-08-18T10:13:16.904Z,15.60
2022-08-18T10:15:50.912Z,15.60
2022-08-18T10:18:39.621Z,15.60
2022-08-18T10:21:16.928Z,15.60
2022-08-18T10:24:14.749Z,15.60
2022-08-18T10:27:13.913Z,15.60
2022-08-18T10:29:48.025Z,15.60
2022-08-18T10:32:26.024Z,15.70
2022-08-18T10:34:58.177Z,15.70
2022-08-18T10:37:29.962Z,15.70
2022-08-18T10:40:02.253Z,15.70
2022-08-18T10:42:35.010Z,15.80
2022-08-18T10:45:10.182Z,15.90
2022-08-18T10:47:40.414Z,15.90
2022-08-18T10:50:20.688Z,16.00
2022-08-18T10:55:52.622Z,16.10
2022-08-18T10:58:43.000Z,16.20
2022-08-18T11:01:18.667Z,16.30
2022-08-18T11:04:14.396Z,16.40
2022-08-18T11:06:57.312Z,16.40
2022-08-18T11:09:28.228Z,16.50
2022-08-18T11:12:01.526Z,16.50
2022-08-18T11:14:50.266Z,16.50
2022-08-18T11:17:28.805Z,16.60
2022-08-18T11:22:31.430Z,16.70
2022-08-18T11:25:03.378Z,16.80
2022-08-18T11:27:36.221Z,16.90
2022-08-18T11:30:07.536Z,16.90
2022-08-18T11:32:55.322Z,17.00
2022-08-18T11:35:27.918Z,17.00
2022-08-18T11:38:00.553Z,17.10
2022-08-18T11:41:09.745Z,17.10
2022-08-18T11:43:29.774Z,17.20
2022-08-18T11:46:29.496Z,17.30
2022-08-18T11:49:00.996Z,17.40
2022-08-18T11:51:32.814Z,17.40
2022-08-18T11:54:05.673Z,17.50
2022-08-18T11:56:38.119Z,17.50
2022-08-18T11:59:08.953Z,17.60
2022-08-18T12:01:42.564Z,17.60
2022-08-18T12:04:23.126Z,17.70
2022-08-18T12:06:56.883Z,17.80
2022-08-18T12:12:19.719Z,17.90
2022-08-18T12:15:04.919Z,18.00
2022-08-18T12:17:42.007Z,18.10
2022-08-18T12:20:12.284Z,18.20
2022-08-18T12:22:43.593Z,18.40
2022-08-18T12:25:16.067Z,18.50
2022-08-18T12:27:54.619Z,18.60
2022-08-18T12:30:24.348Z,18.70
2022-08-18T12:32:56.283Z,18.70
2022-08-18T12:35:36.080Z,18.80
2022-08-18T12:38:13.725Z,18.90
2022-08-18T12:40:45.579Z,19.00
2022-08-18T12:43:15.197Z,19.10
2022-08-18T12:45:47.018Z,19.20
2022-08-18T12:48:16.489Z,19.30
2022-08-18T12:50:54.506Z,19.30
2022-08-18T12:53:30.030Z,19.40
2022-08-18T12:56:10.538Z,19.50
2022-08-18T12:58:40.999Z,19.60
2022-08-18T13:01:10.776Z,19.70
2022-08-18T13:06:30.458Z,19.90
2022-08-18T13:09:00.110Z,19.90
2022-08-18T13:11:31.357Z,19.90
2022-08-18T13:14:03.189Z,19.90
2022-08-18T13:16:54.958Z,20.00
2022-08-18T13:19:25.131Z,20.00
2022-08-18T13:22:02.022Z,20.00
2022-08-18T13:24:33.314Z,20.10
2022-08-18T13:27:18.599Z,20.20
2022-08-18T13:29:52.919Z,20.30
2022-08-18T13:32:22.421Z,20.40
2022-08-18T13:34:52.044Z,20.60
2022-08-18T13:37:28.164Z,20.60
2022-08-18T13:39:58.486Z,20.70
2022-08-18T13:42:33.221Z,20.80
2022-08-18T13:45:24.849Z,21.00
2022-08-18T13:47:58.405Z,21.10
2022-08-18T13:50:29.710Z,21.20
2022-08-18T13:53:01.703Z,21.40
2022-08-18T13:55:31.213Z,21.50
2022-08-18T13:58:02.885Z,21.60
2022-08-18T14:00:47.562Z,21.70
2022-08-18T14:03:20.567Z,21.70
2022-08-18T14:06:03.459Z,21.60
2022-08-18T14:08:36.616Z,21.70
2022-08-18T14:11:10.245Z,21.80
2022-08-18T14:13:43.889Z,21.90
2022-08-18T14:16:18.879Z,22.00
2022-08-18T14:19:10.146Z,22.10
2022-08-18T14:22:00.125Z,22.10
2022-08-18T14:24:48.977Z,22.20
2022-08-18T14:27:19.297Z,22.30
2022-08-18T14:30:07.787Z,22.30
2022-08-18T14:32:49.363Z,22.30
2022-08-18T14:36:04.417Z,22.40
2022-08-18T14:38:10.287Z,22.60
2022-08-18T14:40:41.838Z,22.80
2022-08-18T14:43:14.370Z,23.10
2022-08-18T14:45:49.270Z,23.20
2022-08-18T14:48:22.660Z,23.20
2022-08-18T14:50:55.120Z,23.10
2022-08-18T14:53:25.911Z,23.10
2022-08-18T14:55:56.537Z,23.20
2022-08-18T14:58:29.721Z,23.20
2022-08-18T15:01:00.095Z,23.20
2022-08-18T15:03:35.840Z,23.10
2022-08-18T15:06:06.191Z,23.10
2022-08-18T15:08:35.986Z,23.20
2022-08-18T15:11:11.673Z,23.20
2022-08-18T15:13:42.917Z,23.20
2022-08-18T15:16:14.332Z,23.10
2022-08-18T15:18:46.147Z,23.00
2022-08-18T15:21:35.566Z,23.00
2022-08-18T15:24:26.477Z,23.00
2022-08-18T15:26:58.049Z,23.10
2022-08-18T15:29:32.988Z,23.20
2022-08-18T15:32:10.271Z,23.30
2022-08-18T15:34:46.984Z,23.40
2022-08-18T15:37:24.064Z,23.50
2022-08-18T15:40:01.456Z,23.70
2022-08-18T15:42:33.243Z,23.80
2022-08-18T15:45:12.087Z,24.00
2022-08-18T15:47:43.707Z,24.00
2022-08-18T15:50:25.621Z,24.20
2022-08-18T15:52:58.766Z,24.50
2022-08-18T15:55:29.474Z,24.80
2022-08-18T15:58:11.187Z,25.20
2022-08-18T16:00:43.763Z,25.60
2022-08-18T16:03:16.564Z,25.60
2022-08-18T16:05:52.631Z,25.50
2022-08-18T16:08:23.012Z,25.50
2022-08-18T16:10:52.721Z,25.30
2022-08-18T16:13:22.236Z,25.30
2022-08-18T16:15:51.774Z,25.30
2022-08-18T16:18:23.787Z,25.20
2022-08-18T16:20:56.776Z,25.10
2022-08-18T16:23:31.312Z,25.10
2022-08-18T16:26:04.566Z,25.30
2022-08-18T16:28:35.112Z,25.40
2022-08-18T16:31:06.770Z,25.50
2022-08-18T16:33:36.750Z,25.80
2022-08-18T16:36:09.520Z,26.00
2022-08-18T16:38:39.895Z,26.30
2022-08-18T16:41:13.829Z,26.60
2022-08-18T16:43:45.149Z,26.90
2022-08-18T16:46:15.675Z,27.30
2022-08-18T16:48:47.791Z,27.70
2022-08-18T16:51:21.099Z,28.10
2022-08-18T16:53:52.785Z,28.40
2022-08-18T16:56:24.828Z,28.40
2022-08-18T16:59:11.394Z,28.40
2022-08-18T17:01:57.987Z,28.50
2022-08-18T17:04:29.449Z,28.20
2022-08-18T17:07:00.961Z,28.00
2022-08-18T17:09:30.446Z,27.70
2022-08-18T17:11:59.989Z,27.70
2022-08-18T17:14:31.040Z,27.80
2022-08-18T17:17:01.111Z,27.80
2022-08-18T17:19:31.836Z,27.60
2022-08-18T17:22:04.059Z,27.60
2022-08-18T17:24:34.008Z,27.50
2022-08-18T17:27:12.084Z,27.20
2022-08-18T17:30:02.788Z,27.10
2022-08-18T17:35:09.972Z,26.70
2022-08-18T17:37:52.458Z,26.60
2022-08-18T17:40:28.843Z,26.50
2022-08-18T17:43:00.489Z,26.50
2022-08-18T17:45:38.595Z,26.50
2022-08-18T17:48:11.260Z,26.50
2022-08-18T17:50:59.725Z,26.40
2022-08-18T17:53:33.144Z,26.30
2022-08-18T17:56:06.289Z,26.10
2022-08-18T17:58:41.026Z,26.20
2022-08-18T18:01:11.029Z,26.30
2022-08-18T18:03:41.150Z,26.50
2022-08-18T18:06:21.268Z,26.90
2022-08-18T18:08:55.887Z,27.10
2022-08-18T18:11:29.522Z,27.50
2022-08-18T18:13:59.676Z,27.60
2022-08-18T18:16:30.797Z,27.80
2022-08-18T18:19:05.786Z,27.80
2022-08-18T18:22:00.680Z,27.70
2022-08-18T18:24:33.475Z,27.90
2022-08-18T18:27:04.816Z,27.90
2022-08-18T18:29:38.256Z,28.20
2022-08-18T18:32:25.472Z,28.40
2022-08-18T18:35:06.866Z,28.20
2022-08-18T18:37:43.964Z,28.30
2022-08-18T18:40:28.593Z,28.60
2022-08-18T18:42:58.858Z,29.00
2022-08-18T18:45:33.097Z,29.30
2022-08-18T18:48:08.227Z,29.90
2022-08-18T18:51:06.416Z,30.30
2022-08-18T18:53:52.770Z,30.70
2022-08-18T18:56:26.001Z,31.00
2022-08-18T18:59:00.626Z,31.10
2022-08-18T19:01:35.681Z,30.70
2022-08-18T19:04:08.410Z,30.70
2022-08-18T19:06:42.479Z,30.20
2022-08-18T19:09:16.274Z,30.00
2022-08-18T19:11:54.988Z,30.00
2022-08-18T19:14:27.582Z,29.70
2022-08-18T19:17:00.184Z,29.40
2022-08-18T19:19:37.237Z,29.30
2022-08-18T19:22:11.441Z,28.80
2022-08-18T19:24:47.959Z,28.30
2022-08-18T19:27:24.390Z,28.10
2022-08-18T19:29:55.170Z,28.20
2022-08-18T19:32:29.029Z,28.90
2022-08-18T19:34:59.451Z,29.30
2022-08-18T19:37:36.474Z,29.70
2022-08-18T19:40:14.746Z,30.40
2022-08-18T19:42:48.325Z,30.80
2022-08-18T19:45:21.596Z,30.80
2022-08-18T19:47:53.275Z,30.80
2022-08-18T19:50:27.298Z,30.90
2022-08-18T19:53:05.452Z,31.00
2022-08-18T19:55:40.610Z,30.50
2022-08-18T19:58:30.613Z,30.50
2022-08-18T20:01:04.453Z,30.60
2022-08-18T20:03:49.466Z,30.40
2022-08-18T20:06:34.509Z,30.70
2022-08-18T20:09:12.723Z,30.40
2022-08-18T20:11:59.870Z,30.30
2022-08-18T20:14:30.114Z,29.80
2022-08-18T20:17:23.682Z,29.30
2022-08-18T20:20:14.762Z,29.30
2022-08-18T20:22:45.608Z,29.00
2022-08-18T20:25:30.530Z,28.50
2022-08-18T20:28:15.456Z,28.40
2022-08-18T20:30:54.886Z,28.40
2022-08-18T20:33:34.317Z,28.50
2022-08-18T20:36:24.574Z,28.30
2022-08-18T20:38:56.788Z,28.30
2022-08-18T20:41:39.268Z,28.70
2022-08-18T20:44:29.183Z,29.10
2022-08-18T20:47:05.338Z,29.30
2022-08-18T20:49:38.232Z,29.50
2022-08-18T20:52:13.706Z,29.60
2022-08-18T20:54:57.518Z,29.50
2022-08-18T20:57:35.709Z,29.30
2022-08-18T21:00:14.045Z,29.40
2022-08-18T21:02:49.316Z,29.30
2022-08-18T21:05:27.926Z,29.00
2022-08-18T21:08:03.409Z,28.70
2022-08-18T21:10:35.460Z,28.30
2022-08-18T21:13:07.235Z,28.00
2022-08-18T21:15:37.936Z,27.60
2022-08-18T21:18:09.016Z,27.40
2022-08-18T21:20:39.477Z,27.30
2022-08-18T21:23:10.323Z,27.50
2022-08-18T21:25:43.129Z,27.90
2022-08-18T21:28:14.162Z,28.00
2022-08-18T21:30:56.352Z,27.90
2022-08-18T21:33:51.037Z,27.90
2022-08-18T21:36:22.108Z,27.80
2022-08-18T21:38:58.553Z,28.10
2022-08-18T21:41:42.969Z,28.40
2022-08-18T21:44:17.224Z,28.70
2022-08-18T21:46:48.255Z,28.90
2022-08-18T21:49:25.591Z,29.20
2022-08-18T21:51:55.265Z,29.10
2022-08-18T21:54:27.419Z,28.60
2022-08-18T21:57:15.403Z,28.00
2022-08-18T21:59:59.606Z,27.50
2022-08-18T22:02:31.919Z,26.90
2022-08-18T22:05:01.553Z,26.30
2022-08-18T22:07:35.200Z,25.90
2022-08-18T22:10:24.793Z,25.60
2022-08-18T22:13:12.009Z,25.30
2022-08-18T22:15:43.725Z,25.20
2022-08-18T22:18:27.814Z,25.10
2022-08-18T22:20:59.892Z,25.00
2022-08-18T22:23:56.805Z,24.80
2022-08-18T22:26:28.259Z,24.70
2022-08-18T22:29:00.268Z,24.50
2022-08-18T22:31:31.239Z,24.40
2022-08-18T22:34:03.249Z,24.20
2022-08-18T22:36:35.576Z,24.10
2022-08-18T22:39:08.443Z,24.00
2022-08-18T22:41:39.538Z,23.90
2022-08-18T22:44:10.197Z,23.80
2022-08-18T22:46:40.506Z,23.80
2022-08-18T22:49:11.169Z,23.70
2022-08-18T22:51:43.224Z,23.60
2022-08-18T22:54:15.401Z,23.50
2022-08-18T22:56:54.039Z,23.40
2022-08-18T22:59:27.296Z,23.30
2022-08-18T23:01:58.680Z,23.30
2022-08-18T23:04:29.093Z,23.40
2022-08-18T23:07:01.138Z,23.40
2022-08-18T23:09:33.931Z,23.40
2022-08-18T23:12:06.591Z,23.40
2022-08-18T23:14:37.171Z,23.40
2022-08-18T23:17:08.463Z,23.40
2022-08-18T23:19:38.768Z,23.40
2022-08-18T23:22:11.263Z,23.40
2022-08-18T23:24:42.056Z,23.30
2022-08-18T23:27:12.235Z,23.30
2022-08-18T23:29:42.303Z,23.20
2022-08-18T23:32:12.740Z,23.10
2022-08-18T23:34:42.903Z,23.00
2022-08-18T23:37:14.561Z,22.80
2022-08-18T23:39:46.091Z,22.60
2022-08-18T23:42:16.463Z,22.40
2022-08-18T23:44:47.936Z,22.30
2022-08-18T23:47:21.287Z,22.20
2022-08-18T23:49:52.157Z,22.10
2022-08-18T23:52:23.830Z,22.00
2022-08-18T23:54:53.927Z,21.90
2022-08-18T23:57:24.167Z,21.80
2022-08-18T23:59:55.209Z,21.70
